• Join FlightAware (Why Join?)
  • Login
  • US Flag 
03:51PM EDT


 

Airport Tracker/Info


-or-


 

Live Flight TrackerFlight Track Log ✈ EJA929 ✈ 23-Jun-2013 ✈ KMSP - KPOU

Flight Track Log - Related Links

Times and Time Zones

All times are in EDT time to prevent confusion due to time zone crossing. See the EJA929 flight status page for this flight to view local times or setup timezone preferences in your user account.

Time Position Orientation Groundspeed Altitude Reporting Facility
EDT Latitude Longitude Course Direction KTS MPH feet Rate Location/Type
09:20AM 44.8667 -93.1833 87° East 190 219 2,100  Level Minneapolis TRACON
09:21AM 44.8686 -93.1367 87° East 221 254 2,900 2,040 Climbing Minneapolis Center
09:22AM 44.8550 -93.0317 100° East 272 313 5,400 2,640 Climbing Minneapolis Center
09:23AM 44.8183 -92.9303 117° Southeast 288 331 8,300 3,660 Climbing Minneapolis Center
09:24AM 44.7692 -92.7944 117° Southeast 321 369 12,900 3,060 Climbing Minneapolis Center
09:25AM 44.7219 -92.6639 117° Southeast 381 438 14,600 1,800 Climbing Minneapolis Center
09:26AM 44.6739 -92.5147 114° Southeast 420 483 16,700 2,160 Climbing Minneapolis Center
09:27AM 44.6614 -92.3461 96° East 431 496 19,100 1,920 Climbing Minneapolis Center
09:28AM 44.6511 -92.1783 95° East 432 497 20,700 1,500 Climbing Minneapolis Center
09:29AM 44.6414 -92.0125 95° East 430 495 22,200 1,440 Climbing Minneapolis Center
09:30AM 44.6306 -91.8444 95° East 432 497 23,700 1,440 Climbing Minneapolis Center
09:31AM 44.6192 -91.6758 95° East 435 501 25,200 1,440 Climbing Minneapolis Center
09:32AM 44.6075 -91.5067 95° East 437 503 26,700 1,440 Climbing Minneapolis Center
09:33AM 44.5947 -91.3358 96° East 440 506 28,200 1,440 Climbing Minneapolis Center
09:34AM 44.5828 -91.1619 95° East 447 514 29,700 1,560 Climbing Minneapolis Center
09:35AM 44.5675 -90.9531 96° East 450 518 31,400 1,500 Climbing Minneapolis Center
09:36AM 44.5544 -90.7886 96° East 455 524 32,800 1,380 Climbing Minneapolis Center
09:37AM 44.5414 -90.6111 96° East 457 526 34,300 1,440 Climbing Minneapolis Center
09:38AM 44.5258 -90.4289 97° East 467 537 35,800 1,440 Climbing Minneapolis Center
09:39AM 44.5114 -90.2483 96° East 467 537 37,300 1,440 Climbing Minneapolis Center
09:40AM 44.4967 -90.0644 96° East 473 544 38,800 1,620 Climbing Minneapolis Center
09:41AM 44.4786 -89.8497 97° East 474 545 40,600 1,080 Climbing Minneapolis Center
09:42AM 44.4619 -89.6656 97° East 477 549 41,000 180 Climbing Minneapolis Center
09:43AM 44.4458 -89.4733 97° East 491 565 41,000  Level Minneapolis Center
09:44AM 44.4272 -89.2778 98° East 502 578 41,000  Level Minneapolis Center
09:45AM 44.4089 -89.0747 97° East 515 593 41,000  Level Minneapolis Center
09:46AM 44.3897 -88.8719 97° East 521 600 41,000  Level Minneapolis Center
09:47AM 44.3711 -88.6664 97° East 527 606 41,000  Level Minneapolis Center
09:49AM 44.3514 -88.4614 98° East 530 610 41,000  Level Minneapolis Center
09:50AM 44.3319 -88.2547 97° East 533 613 41,000  Level Minneapolis Center
09:51AM 44.3114 -88.0519 98° East 527 606 41,000  Level Minneapolis Center
09:52AM 44.2903 -87.8472 98° East 528 608 41,000  Level Minneapolis Center
09:53AM 44.2683 -87.6453 99° East 525 604 41,000  Level Minneapolis Center
09:54AM 44.2464 -87.4436 99° East 525 604 41,000  Level Minneapolis Center
09:55AM 44.2247 -87.2431 99° East 523 602 41,000 -60 Level Minneapolis Center
09:56AM 44.2008 -87.0228 99° East 518 596 40,900  Descending Minneapolis Center
09:57AM 44.1792 -86.8244 99° East 520 598 41,000  Climbing Minneapolis Center
09:58AM 44.1564 -86.6275 99° East 519 597 41,000  Level Minneapolis Center
09:59AM 44.1342 -86.4328 99° East 515 593 41,000  Level Minneapolis Center
10:00AM 44.1117 -86.2386 99° East 514 592 41,000  Level Minneapolis Center
10:01AM 44.0858 -86.0231 99° East 518 596 41,000  Level Minneapolis Center
10:02AM 44.0631 -85.8275 99° East 514 592 41,000  Level Minneapolis Center
10:03AM 44.0394 -85.6300 99° East 516 594 41,000  Level Minneapolis Center
10:04AM 44.0156 -85.4344 100° East 515 593 41,000  Level Minneapolis Center
10:05AM 43.9908 -85.2375 100° East 516 594 41,000  Level Minneapolis Center
10:06AM 43.9661 -85.0403 100° East 517 595 41,000  Level Minneapolis Center
10:07AM 43.9411 -84.8464 100° East 514 592 41,000  Level Minneapolis Center
10:08AM 43.9156 -84.6544 100° East 508 585 41,000  Level Minneapolis Center
10:09AM 43.8894 -84.4639 101° East 506 582 41,000  Level Minneapolis Center
10:10AM 43.8647 -84.2725 100° East 506 582 41,000  Level Minneapolis Center
10:11AM 43.8389 -84.0797 100° East 508 585 41,000  Level Minneapolis Center
10:12AM 43.8119 -83.8886 101° East 507 583 41,000  Level Minneapolis Center
10:13AM 43.7858 -83.6978 101° East 507 583 41,000  Level Minneapolis Center
10:14AM 43.7581 -83.5086 101° East 505 581 41,000  Level Minneapolis Center
10:15AM 43.7250 -83.2800 101° East 505 581 41,000  Level Minneapolis Center
10:16AM 43.6981 -83.0914 101° East 503 579 41,000  Level Minneapolis Center
10:17AM 43.6667 -82.9833 112° Southeast 500 575 41,000  Level Toronto Center
10:18AM 43.6333 -82.7667 102° East 500 575 41,000  Level Toronto Center
10:19AM 43.6167 -82.5833 97° East 510 587 41,000  Level Toronto Center
10:20AM 43.5833 -82.4000 104° East 510 587 41,000  Level Toronto Center
10:21AM 43.5500 -82.2167 104° East 510 587 41,000  Level Toronto Center
10:22AM 43.5167 -82.0167 103° East 510 587 41,000  Level Toronto Center
10:23AM 43.5000 -81.8167 96° East 510 587 41,000  Level Toronto Center
10:24AM 43.4667 -81.6333 104° East 510 587 41,000  Level Toronto Center
10:25AM 43.4333 -81.4500 104° East 510 587 41,000  Level Toronto Center
10:26AM 43.4000 -81.2333 102° East 510 587 41,000  Level Toronto Center
10:27AM 43.3667 -81.0500 104° East 510 587 41,000  Level Toronto Center
10:28AM 43.3333 -80.8667 104° East 510 587 41,000  Level Toronto Center
10:29AM 43.3167 -80.6833 97° East 510 587 41,000  Level Toronto Center
10:30AM 43.2833 -80.5000 104° East 510 587 41,000  Level Toronto Center
10:31AM 43.2500 -80.3167 104° East 510 587 41,000  Level Toronto Center
10:32AM 43.2167 -80.1167 103° East 510 587 41,000  Level Toronto Center
10:33AM 43.1833 -79.9333 104° East 510 587 41,000  Level Toronto Center
10:34AM 43.1500 -79.7500 104° East 500 575 41,000  Level Toronto Center
10:35AM 43.1167 -79.5500 103° East 500 575 41,000  Level Toronto Center
10:36AM 43.0833 -79.3833 105° East 510 587 41,000  Level Toronto Center
10:37AM 43.0500 -79.1833 103° East 510 587 41,000  Level Toronto Center
10:38AM 43.0167 -79.0000 104° East 500 575 41,000  Level Toronto Center
10:39AM 42.9833 -78.8167 104° East 500 575 41,000 -540 Level Toronto Center
10:40AM 42.9500 -78.6333 104° East 500 575 40,000 -1,440 Descending Toronto Center
10:41AM 42.9000 -78.4500 110° East 500 575 38,200 -1,920 Descending Toronto Center
10:42AM 42.8667 -78.2667 104° East 510 587 36,200 -2,100 Descending Toronto Center
10:43AM 42.8333 -78.0667 103° East 510 587 34,100 -2,040 Descending Toronto Center
10:44AM 42.7833 -77.8833 110° East 520 598 32,200 -2,040 Descending Toronto Center
10:45AM 42.7500 -77.6833 103° East 530 610 30,100 -2,100 Descending Toronto Center
10:46AM 42.7167 -77.4833 103° East 540 621 28,100 -1,560 Descending Toronto Center
10:47AM 42.6667 -77.3000 110° East 530 610 27,000 -720 Descending Toronto Center
10:47AM 42.6611 -77.2042 94° East 504 580 27,000  Level Boston Center
10:48AM 42.6228 -77.0175 106° East 504 580 27,000  Level Boston Center
10:49AM 42.5844 -76.8314 106° East 509 586 27,000  Level Boston Center
10:50AM 42.5456 -76.6453 106° East 509 586 27,000  Level Boston Center
10:51AM 42.5083 -76.4625 105° East 504 580 27,000 -240 Level Boston Center
10:52AM 42.4689 -76.2769 106° East 504 580 26,600 -900 Descending Boston Center
10:53AM 42.4328 -76.1086 106° East 509 586 25,200 -1,500 Descending Boston Center
10:54AM 42.3947 -75.9264 106° East 504 580 23,700 -2,040 Descending Boston Center
10:55AM 42.3564 -75.7500 106° East 496 571 21,200 -2,760 Descending Boston Center
10:56AM 42.3136 -75.5597 107° East 486 559 18,200 -2,580 Descending Boston Center
10:57AM 42.2822 -75.4119 106° East 473 544 16,100 -2,160 Descending Boston Center
10:58AM 42.2467 -75.2561 107° East 460 529 13,900 -2,400 Descending Boston Center
10:59AM 42.2111 -75.0919 106° East 434 499 11,300 -1,500 Descending Boston Center
11:00AM 42.1725 -74.9503 110° East 409 471 11,000 -180 Descending Boston Center
11:01AM 42.1169 -74.8164 119° Southeast 402 463 11,000  Level Boston Center
11:02AM 42.0633 -74.6858 119° Southeast 396 456 11,000 -360 Level Boston Center
11:04AM 41.9833 -74.4833 118° Southeast 306 352 10,100 -900 Descending New York TRACON
11:05AM 41.9333 -74.3833 124° Southeast 282 325 8,600 -1,800 Descending New York TRACON
11:06AM 41.8833 -74.3000 129° Southeast 299 344 6,600 -1,800 Descending New York TRACON
11:07AM 41.8333 -74.2167 129° Southeast 279 321 5,000 -1,260 Descending New York TRACON
11:08AM 41.7833 -74.1500 135° Southeast 268 308 4,100 -600 Descending New York TRACON
11:09AM 41.7333 -74.0667 129° Southeast 274 315 3,800 -840 Descending New York TRACON
11:10AM 41.7000 -74.0000 124° Southeast 257 296 2,500 -900 Descending New York TRACON
11:11AM 41.6500 -73.9167 129° Southeast 242 278 2,100 -240 Descending New York TRACON
11:12AM 41.6667 -73.8500 71° East 206 237 2,100  Level New York TRACON
11:13AM 41.6667 -73.8167 90° East 160 184 2,200 -600 Climbing New York TRACON
11:14AM 41.6500 -73.8500 236° Southwest 129 148 900 -1,320 Descending New York TRACON
11:16AM 41.6167 -73.8833 135° Southeast  Level FlightAware Approximate
11:23AM 41.6266 -73.8842 135° Southeast  Level Estimated